Sandwich, New Hampshire
Current Conditions -  °F | °C
As of 11:55 PM on Saturday 25 Oct 2014 (Local Time) from K1P1 Reporting Station
Haze Haze  
Wind Chill: 47°   Ceiling: Unl
Heat Index: 47°   Visibility: 5mi
Dew Point: 47°   Wind: 0mph
Humidity: 100%   Direction: NA
Pressure: 29.46"   Gusts: NA
Location:  43.8351°N, 71.478°W
Report Text: K1P1 260355Z AUTO 00000KT 5SM BR SCT043 SCT050 SCT060 08/08 A2946 RMK AO2 T00840084 401670044
Loading
Personal Weather Stations






























Interactive Weather Map
Tropical Storm Tracking
New forecast layout! Learn more

10-Day Weather Forecast

Advertisements
Track Severe Weather on mobile